Brainerd, MN

10:45 AM CDT on August 20, 2014 (GMT -0500)
Brainerd-Crow Wing County Regional | Change Station
CLOSE
Current Station
Airport
Location: Brainerd,
Elevation: 1227 ft
Nearby Weather Stations

Elev 1227 ft 46.40 °N, 94.13 °W | Updated 13 minutes ago

Partly Cloudy
Partly Cloudy
69 °F
Feels Like 69 °F
N
5
Wind Variable Wind from SE

Today
High -- | Low -- °F
--% Chance of Precip.
Yesterday
High -- | Low -- °F
Precip. -- in
6:21 AM 8:17 PM
Waning Crescent, 21% visible
Pressure 29.88 in
Visibility 10.0 miles
Clouds Few 200 ft
Dew Point 62 °F
Humidity 78%
Rainfall 0.00 in
Snow Depth Not available.
UV 5 out of 12
Pollen 9.80 out of 12
Air Quality Not available.
Flu Activity Not available.
SPECI KBRD 201532Z AUTO 13004KT 10SM FEW002 21/17 A2988 RMK AO2 T02060167

More Conditions Fewer Conditions

Pressure 29.88 in
Visibility 10.0 miles
Clouds Few 200 ft
Dew Point 62 °F
Humidity 78%
Rainfall 0.00 in
Snow Depth Not available.
UV 5 out of 12
Pollen 9.80 out of 12
Air Quality Not available.
Flu Activity Not available.
SPECI KBRD 201532Z AUTO 13004KT 10SM FEW002 21/17 A2988 RMK AO2 T02060167

More Conditions Fewer Conditions

10-Day Weather Forecast

Almanac

Astronomy

Aug. 20, 2014 Rise Set
Actual Time 6:21 AM CDT 8:17 PM CDT
Civil Twilight 5:49 AM CDT 8:49 PM CDT
Nautical Twilight 5:09 AM CDT 9:28 PM CDT
Astronomical Twilight 4:25 AM CDT 10:12 PM CDT
Moon 1:55 AM CDT 5:08 PM CDT
Length of Visible Light 15h 00m
Length of Day
13h 55m
Tomorrow will be 3m 2s shorter.
Waning Crescent, 21% of the Moon is Illuminated
Today
Waning Crescent
Aug 25
New
Sep 2
First Quarter
Sep 8
Full
Sep 15
Last Quarter

Today's Extremes

State Highs State Lows

Community

WunderPhotos

Upload Photos

1,745,668 photos uploaded!

WunderBlogs® & News

Nearby

Snow Depth

Station Depth Elevation
No new snow has been reported.

Earthquake Activity

City Distance Mag. Time & Date
No recent earthquake activity has been reported nearby.
Minimum magnitude displayed is 2.5.

Coastal Water Temperatures

Place Temperature
No Stations Reporting

Nearby Weather Stations